sensor_id;sensor_type;location;lat;lon;timestamp;P1;durP1;ratioP1;P2;durP2;ratioP2
25917;SDS011;13899;51.174;4.456;2023-05-07T00:00:24;12.73;;;11.63;;
25917;SDS011;13899;51.174;4.456;2023-05-07T00:02:50;14.40;;;13.18;;
25917;SDS011;13899;51.174;4.456;2023-05-07T00:05:16;13.83;;;12.63;;
25917;SDS011;13899;51.174;4.456;2023-05-07T00:07:42;14.38;;;13.07;;
25917;SDS011;13899;51.174;4.456;2023-05-07T00:10:08;14.90;;;13.30;;
25917;SDS011;13899;51.174;4.456;2023-05-07T00:12:35;14.25;;;13.05;;
25917;SDS011;13899;51.174;4.456;2023-05-07T00:15:04;13.47;;;12.27;;
25917;SDS011;13899;51.174;4.456;2023-05-07T00:17:31;17.27;;;12.55;;
25917;SDS011;13899;51.174;4.456;2023-05-07T00:19:57;14.65;;;13.35;;
25917;SDS011;13899;51.174;4.456;2023-05-07T00:22:23;13.90;;;12.60;;
25917;SDS011;13899;51.174;4.456;2023-05-07T00:24:49;14.77;;;13.55;;
25917;SDS011;13899;51.174;4.456;2023-05-07T00:27:15;14.93;;;13.63;;
25917;SDS011;13899;51.174;4.456;2023-05-07T00:32:07;14.47;;;13.27;;
25917;SDS011;13899;51.174;4.456;2023-05-07T00:34:33;15.20;;;13.85;;
25917;SDS011;13899;51.174;4.456;2023-05-07T00:36:59;14.67;;;13.37;;
25917;SDS011;13899;51.174;4.456;2023-05-07T00:39:26;13.45;;;12.40;;
25917;SDS011;13899;51.174;4.456;2023-05-07T00:41:51;15.43;;;13.82;;
25917;SDS011;13899;51.174;4.456;2023-05-07T00:44:17;14.43;;;13.13;;
25917;SDS011;13899;51.174;4.456;2023-05-07T00:46:43;15.13;;;13.73;;
25917;SDS011;13899;51.174;4.456;2023-05-07T00:49:10;14.82;;;13.55;;
25917;SDS011;13899;51.174;4.456;2023-05-07T00:51:36;14.90;;;13.70;;
25917;SDS011;13899;51.174;4.456;2023-05-07T00:54:02;14.47;;;13.03;;
25917;SDS011;13899;51.174;4.456;2023-05-07T00:56:28;14.97;;;13.40;;
25917;SDS011;13899;51.174;4.456;2023-05-07T00:58:54;14.77;;;13.55;;
25917;SDS011;13899;51.174;4.456;2023-05-07T01:01:20;15.23;;;13.77;;
25917;SDS011;13899;51.174;4.456;2023-05-07T01:03:46;15.70;;;14.10;;
25917;SDS011;13899;51.174;4.456;2023-05-07T01:06:11;14.20;;;13.00;;
25917;SDS011;13899;51.174;4.456;2023-05-07T01:08:41;15.40;;;13.70;;
25917;SDS011;13899;51.174;4.456;2023-05-07T01:11:07;14.93;;;13.35;;
25917;SDS011;13899;51.174;4.456;2023-05-07T01:13:34;15.68;;;14.38;;
25917;SDS011;13899;51.174;4.456;2023-05-07T01:18:28;15.45;;;13.95;;
25917;SDS011;13899;51.174;4.456;2023-05-07T01:23:22;16.63;;;14.98;;
25917;SDS011;13899;51.174;4.456;2023-05-07T01:25:53;15.55;;;14.00;;
25917;SDS011;13899;51.174;4.456;2023-05-07T01:28:19;17.23;;;15.32;;
25917;SDS011;13899;51.174;4.456;2023-05-07T01:30:47;17.00;;;15.50;;
25917;SDS011;13899;51.174;4.456;2023-05-07T01:33:21;16.08;;;14.77;;
25917;SDS011;13899;51.174;4.456;2023-05-07T01:35:49;17.33;;;15.15;;
25917;SDS011;13899;51.174;4.456;2023-05-07T01:38:17;16.17;;;14.82;;
25917;SDS011;13899;51.174;4.456;2023-05-07T01:40:44;16.45;;;14.68;;
25917;SDS011;13899;51.174;4.456;2023-05-07T01:43:10;16.77;;;15.48;;
25917;SDS011;13899;51.174;4.456;2023-05-07T01:45:36;14.97;;;13.60;;
25917;SDS011;13899;51.174;4.456;2023-05-07T01:48:03;15.77;;;14.57;;
25917;SDS011;13899;51.174;4.456;2023-05-07T01:50:31;15.30;;;13.98;;
25917;SDS011;13899;51.174;4.456;2023-05-07T01:55:23;16.33;;;15.03;;
25917;SDS011;13899;51.174;4.456;2023-05-07T01:57:49;18.35;;;16.67;;
25917;SDS011;13899;51.174;4.456;2023-05-07T02:00:14;17.73;;;16.27;;
25917;SDS011;13899;51.174;4.456;2023-05-07T02:02:40;18.20;;;16.40;;
25917;SDS011;13899;51.174;4.456;2023-05-07T02:05:06;16.43;;;14.80;;
25917;SDS011;13899;51.174;4.456;2023-05-07T02:07:32;17.63;;;16.03;;
25917;SDS011;13899;51.174;4.456;2023-05-07T02:09:58;17.50;;;15.87;;
25917;SDS011;13899;51.174;4.456;2023-05-07T02:12:24;16.93;;;15.17;;
25917;SDS011;13899;51.174;4.456;2023-05-07T02:14:49;16.80;;;15.43;;
25917;SDS011;13899;51.174;4.456;2023-05-07T02:17:15;18.30;;;16.70;;
25917;SDS011;13899;51.174;4.456;2023-05-07T02:19:41;18.30;;;16.90;;
25917;SDS011;13899;51.174;4.456;2023-05-07T02:22:07;16.07;;;14.77;;
25917;SDS011;13899;51.174;4.456;2023-05-07T02:24:32;17.88;;;16.35;;
25917;SDS011;13899;51.174;4.456;2023-05-07T02:26:58;17.48;;;16.17;;
25917;SDS011;13899;51.174;4.456;2023-05-07T02:29:24;17.20;;;15.53;;
25917;SDS011;13899;51.174;4.456;2023-05-07T02:31:49;17.03;;;15.57;;
25917;SDS011;13899;51.174;4.456;2023-05-07T02:34:17;17.17;;;15.68;;
25917;SDS011;13899;51.174;4.456;2023-05-07T02:36:43;17.02;;;15.75;;
25917;SDS011;13899;51.174;4.456;2023-05-07T02:39:10;17.13;;;15.77;;
25917;SDS011;13899;51.174;4.456;2023-05-07T02:41:37;17.60;;;16.17;;
25917;SDS011;13899;51.174;4.456;2023-05-07T02:44:03;18.60;;;16.95;;
25917;SDS011;13899;51.174;4.456;2023-05-07T02:46:28;16.55;;;15.40;;
25917;SDS011;13899;51.174;4.456;2023-05-07T02:48:54;18.35;;;16.90;;
25917;SDS011;13899;51.174;4.456;2023-05-07T02:51:20;17.75;;;16.17;;
25917;SDS011;13899;51.174;4.456;2023-05-07T02:53:47;17.40;;;16.08;;
25917;SDS011;13899;51.174;4.456;2023-05-07T02:56:13;16.97;;;15.57;;
25917;SDS011;13899;51.174;4.456;2023-05-07T02:58:39;18.20;;;16.57;;
25917;SDS011;13899;51.174;4.456;2023-05-07T03:01:05;16.92;;;15.52;;
25917;SDS011;13899;51.174;4.456;2023-05-07T03:03:31;17.13;;;15.73;;
25917;SDS011;13899;51.174;4.456;2023-05-07T03:05:57;17.87;;;16.43;;
25917;SDS011;13899;51.174;4.456;2023-05-07T03:08:23;19.88;;;17.95;;
25917;SDS011;13899;51.174;4.456;2023-05-07T03:10:49;19.50;;;17.98;;
25917;SDS011;13899;51.174;4.456;2023-05-07T03:13:15;18.37;;;16.77;;
25917;SDS011;13899;51.174;4.456;2023-05-07T03:15:41;16.77;;;15.47;;
25917;SDS011;13899;51.174;4.456;2023-05-07T03:18:06;17.67;;;16.17;;
25917;SDS011;13899;51.174;4.456;2023-05-07T03:20:32;18.77;;;17.17;;
25917;SDS011;13899;51.174;4.456;2023-05-07T03:22:58;17.27;;;15.88;;
25917;SDS011;13899;51.174;4.456;2023-05-07T03:25:24;18.00;;;16.60;;
25917;SDS011;13899;51.174;4.456;2023-05-07T03:27:50;17.10;;;15.63;;
25917;SDS011;13899;51.174;4.456;2023-05-07T03:30:15;19.30;;;16.60;;
25917;SDS011;13899;51.174;4.456;2023-05-07T03:32:41;17.80;;;16.40;;
25917;SDS011;13899;51.174;4.456;2023-05-07T03:35:07;17.37;;;15.97;;
25917;SDS011;13899;51.174;4.456;2023-05-07T03:37:32;17.55;;;16.30;;
25917;SDS011;13899;51.174;4.456;2023-05-07T03:39:58;18.57;;;17.23;;
25917;SDS011;13899;51.174;4.456;2023-05-07T03:42:24;18.15;;;16.73;;
25917;SDS011;13899;51.174;4.456;2023-05-07T03:44:49;17.43;;;16.13;;
25917;SDS011;13899;51.174;4.456;2023-05-07T03:47:15;17.63;;;16.33;;
25917;SDS011;13899;51.174;4.456;2023-05-07T03:49:41;15.65;;;14.55;;
25917;SDS011;13899;51.174;4.456;2023-05-07T03:52:06;17.67;;;16.37;;
25917;SDS011;13899;51.174;4.456;2023-05-07T03:54:32;16.10;;;14.83;;
25917;SDS011;13899;51.174;4.456;2023-05-07T03:56:58;16.80;;;15.43;;
25917;SDS011;13899;51.174;4.456;2023-05-07T03:59:25;17.38;;;16.05;;
25917;SDS011;13899;51.174;4.456;2023-05-07T04:01:50;17.42;;;16.13;;
25917;SDS011;13899;51.174;4.456;2023-05-07T04:04:16;18.27;;;16.73;;
25917;SDS011;13899;51.174;4.456;2023-05-07T04:06:42;18.05;;;16.58;;
25917;SDS011;13899;51.174;4.456;2023-05-07T04:09:08;19.25;;;17.75;;
25917;SDS011;13899;51.174;4.456;2023-05-07T04:11:35;18.07;;;16.50;;
25917;SDS011;13899;51.174;4.456;2023-05-07T04:14:01;17.15;;;15.75;;
25917;SDS011;13899;51.174;4.456;2023-05-07T04:16:26;18.57;;;16.97;;
25917;SDS011;13899;51.174;4.456;2023-05-07T04:18:52;18.40;;;17.10;;
25917;SDS011;13899;51.174;4.456;2023-05-07T04:21:18;19.13;;;17.43;;
25917;SDS011;13899;51.174;4.456;2023-05-07T04:23:45;18.88;;;17.27;;
25917;SDS011;13899;51.174;4.456;2023-05-07T04:26:12;17.95;;;16.40;;
25917;SDS011;13899;51.174;4.456;2023-05-07T04:28:38;18.70;;;17.20;;
25917;SDS011;13899;51.174;4.456;2023-05-07T04:31:04;17.55;;;16.25;;
25917;SDS011;13899;51.174;4.456;2023-05-07T04:33:30;17.10;;;15.40;;
25917;SDS011;13899;51.174;4.456;2023-05-07T04:35:56;18.17;;;16.77;;
25917;SDS011;13899;51.174;4.456;2023-05-07T04:38:22;16.40;;;15.30;;
25917;SDS011;13899;51.174;4.456;2023-05-07T04:40:48;18.02;;;16.73;;
25917;SDS011;13899;51.174;4.456;2023-05-07T04:43:15;18.25;;;16.73;;
25917;SDS011;13899;51.174;4.456;2023-05-07T04:45:41;18.15;;;16.67;;
25917;SDS011;13899;51.174;4.456;2023-05-07T04:48:07;18.00;;;16.40;;
25917;SDS011;13899;51.174;4.456;2023-05-07T04:50:35;15.85;;;14.55;;
25917;SDS011;13899;51.174;4.456;2023-05-07T04:53:01;17.13;;;15.73;;
25917;SDS011;13899;51.174;4.456;2023-05-07T04:55:28;15.75;;;14.38;;
25917;SDS011;13899;51.174;4.456;2023-05-07T04:57:53;16.90;;;15.67;;
25917;SDS011;13899;51.174;4.456;2023-05-07T05:00:19;16.47;;;15.27;;
25917;SDS011;13899;51.174;4.456;2023-05-07T05:02:45;17.00;;;15.63;;
25917;SDS011;13899;51.174;4.456;2023-05-07T05:05:11;18.07;;;16.67;;
25917;SDS011;13899;51.174;4.456;2023-05-07T05:07:36;17.80;;;15.53;;
25917;SDS011;13899;51.174;4.456;2023-05-07T05:10:02;15.02;;;13.98;;
25917;SDS011;13899;51.174;4.456;2023-05-07T05:12:30;16.95;;;15.55;;
25917;SDS011;13899;51.174;4.456;2023-05-07T05:14:56;16.63;;;15.03;;
25917;SDS011;13899;51.174;4.456;2023-05-07T05:17:22;15.60;;;14.27;;
25917;SDS011;13899;51.174;4.456;2023-05-07T05:19:47;15.53;;;14.33;;
25917;SDS011;13899;51.174;4.456;2023-05-07T05:22:13;15.50;;;14.30;;
25917;SDS011;13899;51.174;4.456;2023-05-07T05:24:39;15.10;;;13.83;;
25917;SDS011;13899;51.174;4.456;2023-05-07T05:27:04;15.63;;;14.33;;
25917;SDS011;13899;51.174;4.456;2023-05-07T05:29:30;14.40;;;13.20;;
25917;SDS011;13899;51.174;4.456;2023-05-07T05:31:58;14.82;;;13.73;;
25917;SDS011;13899;51.174;4.456;2023-05-07T05:34:24;16.63;;;15.23;;
25917;SDS011;13899;51.174;4.456;2023-05-07T05:36:50;16.15;;;14.85;;
25917;SDS011;13899;51.174;4.456;2023-05-07T05:39:16;16.27;;;15.00;;
25917;SDS011;13899;51.174;4.456;2023-05-07T05:41:42;16.40;;;15.07;;
25917;SDS011;13899;51.174;4.456;2023-05-07T05:44:07;16.20;;;15.07;;
25917;SDS011;13899;51.174;4.456;2023-05-07T05:46:36;15.68;;;14.45;;
25917;SDS011;13899;51.174;4.456;2023-05-07T05:49:01;14.80;;;13.70;;
25917;SDS011;13899;51.174;4.456;2023-05-07T05:51:27;16.17;;;14.73;;
25917;SDS011;13899;51.174;4.456;2023-05-07T05:53:53;15.45;;;14.25;;
25917;SDS011;13899;51.174;4.456;2023-05-07T05:56:19;15.40;;;14.20;;
25917;SDS011;13899;51.174;4.456;2023-05-07T05:58:44;15.18;;;14.05;;
25917;SDS011;13899;51.174;4.456;2023-05-07T06:01:11;15.82;;;14.45;;
25917;SDS011;13899;51.174;4.456;2023-05-07T06:03:37;14.67;;;13.50;;
25917;SDS011;13899;51.174;4.456;2023-05-07T06:06:02;14.40;;;13.20;;
25917;SDS011;13899;51.174;4.456;2023-05-07T06:08:31;15.02;;;13.82;;
25917;SDS011;13899;51.174;4.456;2023-05-07T06:10:57;15.75;;;14.60;;
25917;SDS011;13899;51.174;4.456;2023-05-07T06:13:23;13.45;;;12.48;;
25917;SDS011;13899;51.174;4.456;2023-05-07T06:15:49;14.55;;;13.20;;
25917;SDS011;13899;51.174;4.456;2023-05-07T06:18:15;12.87;;;11.77;;
25917;SDS011;13899;51.174;4.456;2023-05-07T06:20:41;13.43;;;12.37;;
25917;SDS011;13899;51.174;4.456;2023-05-07T06:23:06;13.63;;;12.63;;
25917;SDS011;13899;51.174;4.456;2023-05-07T06:25:32;13.80;;;12.70;;
25917;SDS011;13899;51.174;4.456;2023-05-07T06:27:58;14.73;;;13.53;;
25917;SDS011;13899;51.174;4.456;2023-05-07T06:30:23;13.73;;;12.73;;
25917;SDS011;13899;51.174;4.456;2023-05-07T06:32:49;15.40;;;13.90;;
25917;SDS011;13899;51.174;4.456;2023-05-07T06:35:15;12.30;;;11.20;;
25917;SDS011;13899;51.174;4.456;2023-05-07T06:37:41;13.77;;;12.43;;
25917;SDS011;13899;51.174;4.456;2023-05-07T06:42:33;13.80;;;12.63;;
25917;SDS011;13899;51.174;4.456;2023-05-07T06:45:00;12.68;;;11.57;;
25917;SDS011;13899;51.174;4.456;2023-05-07T06:47:26;12.87;;;11.60;;
25917;SDS011;13899;51.174;4.456;2023-05-07T06:49:51;12.30;;;11.20;;
25917;SDS011;13899;51.174;4.456;2023-05-07T06:52:17;13.23;;;12.07;;
25917;SDS011;13899;51.174;4.456;2023-05-07T06:54:42;14.83;;;13.60;;
25917;SDS011;13899;51.174;4.456;2023-05-07T06:57:08;14.60;;;13.30;;
25917;SDS011;13899;51.174;4.456;2023-05-07T06:59:35;14.60;;;13.25;;
25917;SDS011;13899;51.174;4.456;2023-05-07T07:02:01;14.93;;;13.47;;
25917;SDS011;13899;51.174;4.456;2023-05-07T07:04:27;13.53;;;12.53;;
25917;SDS011;13899;51.174;4.456;2023-05-07T07:06:53;13.48;;;12.48;;
25917;SDS011;13899;51.174;4.456;2023-05-07T07:09:19;12.80;;;11.85;;
25917;SDS011;13899;51.174;4.456;2023-05-07T07:11:53;13.23;;;12.23;;
25917;SDS011;13899;51.174;4.456;2023-05-07T07:14:18;12.93;;;11.98;;
25917;SDS011;13899;51.174;4.456;2023-05-07T07:16:48;12.63;;;11.73;;
25917;SDS011;13899;51.174;4.456;2023-05-07T07:19:13;14.35;;;13.07;;
25917;SDS011;13899;51.174;4.456;2023-05-07T07:21:40;12.77;;;11.57;;
25917;SDS011;13899;51.174;4.456;2023-05-07T07:24:07;13.38;;;12.23;;
25917;SDS011;13899;51.174;4.456;2023-05-07T07:29:01;13.27;;;12.18;;
25917;SDS011;13899;51.174;4.456;2023-05-07T07:31:27;11.50;;;10.70;;
25917;SDS011;13899;51.174;4.456;2023-05-07T07:33:54;12.90;;;11.80;;
25917;SDS011;13899;51.174;4.456;2023-05-07T07:36:19;11.82;;;10.90;;
25917;SDS011;13899;51.174;4.456;2023-05-07T07:38:45;13.17;;;11.90;;
25917;SDS011;13899;51.174;4.456;2023-05-07T07:41:11;12.83;;;11.60;;
25917;SDS011;13899;51.174;4.456;2023-05-07T07:43:37;12.37;;;11.30;;
25917;SDS011;13899;51.174;4.456;2023-05-07T07:46:02;12.47;;;11.37;;
25917;SDS011;13899;51.174;4.456;2023-05-07T07:48:28;12.10;;;11.17;;
25917;SDS011;13899;51.174;4.456;2023-05-07T07:50:54;12.17;;;11.23;;
25917;SDS011;13899;51.174;4.456;2023-05-07T07:53:19;13.23;;;12.00;;
25917;SDS011;13899;51.174;4.456;2023-05-07T07:55:45;10.83;;;9.93;;
25917;SDS011;13899;51.174;4.456;2023-05-07T07:58:11;10.73;;;9.93;;
25917;SDS011;13899;51.174;4.456;2023-05-07T08:00:36;9.47;;;8.70;;
25917;SDS011;13899;51.174;4.456;2023-05-07T08:03:02;9.77;;;8.87;;
25917;SDS011;13899;51.174;4.456;2023-05-07T08:05:29;8.67;;;7.93;;
25917;SDS011;13899;51.174;4.456;2023-05-07T08:07:54;12.10;;;11.20;;
25917;SDS011;13899;51.174;4.456;2023-05-07T08:10:20;13.70;;;12.43;;
25917;SDS011;13899;51.174;4.456;2023-05-07T08:12:49;14.50;;;13.32;;
25917;SDS011;13899;51.174;4.456;2023-05-07T08:15:15;15.85;;;14.68;;
25917;SDS011;13899;51.174;4.456;2023-05-07T08:17:42;9.00;;;8.02;;
25917;SDS011;13899;51.174;4.456;2023-05-07T08:20:08;10.15;;;8.13;;
25917;SDS011;13899;51.174;4.456;2023-05-07T08:22:35;7.35;;;6.65;;
25917;SDS011;13899;51.174;4.456;2023-05-07T08:25:01;8.00;;;7.15;;
25917;SDS011;13899;51.174;4.456;2023-05-07T08:27:27;12.38;;;11.27;;
25917;SDS011;13899;51.174;4.456;2023-05-07T08:29:53;11.23;;;10.40;;
25917;SDS011;13899;51.174;4.456;2023-05-07T08:32:19;12.05;;;11.15;;
25917;SDS011;13899;51.174;4.456;2023-05-07T08:34:45;13.07;;;12.03;;
25917;SDS011;13899;51.174;4.456;2023-05-07T08:37:11;12.27;;;11.40;;
25917;SDS011;13899;51.174;4.456;2023-05-07T08:39:37;8.80;;;7.23;;
25917;SDS011;13899;51.174;4.456;2023-05-07T08:42:03;13.57;;;12.50;;
25917;SDS011;13899;51.174;4.456;2023-05-07T08:44:35;14.80;;;13.50;;
25917;SDS011;13899;51.174;4.456;2023-05-07T08:47:06;15.10;;;13.68;;
25917;SDS011;13899;51.174;4.456;2023-05-07T08:49:33;9.55;;;7.95;;
25917;SDS011;13899;51.174;4.456;2023-05-07T08:51:59;9.80;;;7.00;;
25917;SDS011;13899;51.174;4.456;2023-05-07T08:54:26;8.05;;;7.40;;
25917;SDS011;13899;51.174;4.456;2023-05-07T08:56:54;9.18;;;7.68;;
25917;SDS011;13899;51.174;4.456;2023-05-07T08:59:20;8.30;;;7.07;;
25917;SDS011;13899;51.174;4.456;2023-05-07T09:01:45;10.00;;;7.80;;
25917;SDS011;13899;51.174;4.456;2023-05-07T09:04:11;7.47;;;6.77;;
25917;SDS011;13899;51.174;4.456;2023-05-07T09:06:37;9.85;;;8.85;;
25917;SDS011;13899;51.174;4.456;2023-05-07T09:09:06;8.07;;;7.25;;
25917;SDS011;13899;51.174;4.456;2023-05-07T09:11:32;8.40;;;6.90;;
25917;SDS011;13899;51.174;4.456;2023-05-07T09:13:58;8.33;;;6.73;;
25917;SDS011;13899;51.174;4.456;2023-05-07T09:16:28;8.52;;;6.10;;
25917;SDS011;13899;51.174;4.456;2023-05-07T09:18:57;7.95;;;7.20;;
25917;SDS011;13899;51.174;4.456;2023-05-07T09:21:25;8.93;;;6.22;;
25917;SDS011;13899;51.174;4.456;2023-05-07T09:23:51;8.07;;;5.97;;
25917;SDS011;13899;51.174;4.456;2023-05-07T09:26:17;7.65;;;5.93;;
25917;SDS011;13899;51.174;4.456;2023-05-07T09:28:43;7.00;;;5.77;;
25917;SDS011;13899;51.174;4.456;2023-05-07T09:31:11;6.50;;;5.80;;
25917;SDS011;13899;51.174;4.456;2023-05-07T09:33:37;10.70;;;6.15;;
25917;SDS011;13899;51.174;4.456;2023-05-07T09:36:04;9.63;;;6.35;;
25917;SDS011;13899;51.174;4.456;2023-05-07T09:38:31;6.80;;;6.10;;
25917;SDS011;13899;51.174;4.456;2023-05-07T09:41:01;8.90;;;6.63;;
25917;SDS011;13899;51.174;4.456;2023-05-07T09:43:31;10.48;;;9.48;;
25917;SDS011;13899;51.174;4.456;2023-05-07T09:46:00;10.60;;;9.60;;
25917;SDS011;13899;51.174;4.456;2023-05-07T09:48:28;8.07;;;6.05;;
25917;SDS011;13899;51.174;4.456;2023-05-07T09:50:55;8.68;;;5.93;;
25917;SDS011;13899;51.174;4.456;2023-05-07T09:53:23;8.75;;;6.22;;
25917;SDS011;13899;51.174;4.456;2023-05-07T09:55:51;7.80;;;6.50;;
25917;SDS011;13899;51.174;4.456;2023-05-07T09:58:18;7.25;;;6.55;;
25917;SDS011;13899;51.174;4.456;2023-05-07T10:00:44;9.82;;;7.35;;
25917;SDS011;13899;51.174;4.456;2023-05-07T10:03:10;9.65;;;8.68;;
25917;SDS011;13899;51.174;4.456;2023-05-07T10:05:37;17.45;;;16.25;;
25917;SDS011;13899;51.174;4.456;2023-05-07T10:08:04;16.65;;;15.50;;
25917;SDS011;13899;51.174;4.456;2023-05-07T10:10:30;8.10;;;6.25;;
25917;SDS011;13899;51.174;4.456;2023-05-07T10:12:57;6.80;;;6.00;;
25917;SDS011;13899;51.174;4.456;2023-05-07T10:15:23;11.13;;;6.80;;
25917;SDS011;13899;51.174;4.456;2023-05-07T10:17:50;5.97;;;5.03;;
25917;SDS011;13899;51.174;4.456;2023-05-07T10:20:18;6.05;;;5.22;;
25917;SDS011;13899;51.174;4.456;2023-05-07T10:22:44;8.43;;;5.70;;
25917;SDS011;13899;51.174;4.456;2023-05-07T10:25:23;8.05;;;5.65;;
25917;SDS011;13899;51.174;4.456;2023-05-07T10:27:53;8.13;;;5.88;;
25917;SDS011;13899;51.174;4.456;2023-05-07T10:30:38;8.10;;;6.45;;
25917;SDS011;13899;51.174;4.456;2023-05-07T10:33:15;7.00;;;5.72;;
25917;SDS011;13899;51.174;4.456;2023-05-07T10:35:45;6.85;;;5.63;;
25917;SDS011;13899;51.174;4.456;2023-05-07T10:38:13;5.72;;;3.78;;
25917;SDS011;13899;51.174;4.456;2023-05-07T10:40:38;4.27;;;3.73;;
25917;SDS011;13899;51.174;4.456;2023-05-07T10:43:05;4.35;;;3.28;;
25917;SDS011;13899;51.174;4.456;2023-05-07T10:45:31;5.30;;;3.22;;
25917;SDS011;13899;51.174;4.456;2023-05-07T10:48:07;6.63;;;4.25;;
25917;SDS011;13899;51.174;4.456;2023-05-07T10:50:38;5.97;;;4.10;;
25917;SDS011;13899;51.174;4.456;2023-05-07T10:55:52;4.90;;;4.40;;
25917;SDS011;13899;51.174;4.456;2023-05-07T10:59:07;10.30;;;5.00;;
25917;SDS011;13899;51.174;4.456;2023-05-07T11:02:04;8.43;;;5.05;;
25917;SDS011;13899;51.174;4.456;2023-05-07T11:04:31;5.45;;;3.92;;
25917;SDS011;13899;51.174;4.456;2023-05-07T11:15:09;5.35;;;4.88;;
25917;SDS011;13899;51.174;4.456;2023-05-07T11:17:57;5.15;;;3.17;;
25917;SDS011;13899;51.174;4.456;2023-05-07T11:26:03;4.50;;;2.28;;
25917;SDS011;13899;51.174;4.456;2023-05-07T11:28:30;3.63;;;2.00;;
25917;SDS011;13899;51.174;4.456;2023-05-07T11:31:01;3.58;;;2.50;;
25917;SDS011;13899;51.174;4.456;2023-05-07T11:33:27;4.18;;;2.38;;
25917;SDS011;13899;51.174;4.456;2023-05-07T11:35:56;4.00;;;2.78;;
25917;SDS011;13899;51.174;4.456;2023-05-07T11:38:22;5.20;;;3.92;;
25917;SDS011;13899;51.174;4.456;2023-05-07T11:40:51;4.10;;;3.30;;
25917;SDS011;13899;51.174;4.456;2023-05-07T11:43:18;4.63;;;2.97;;
25917;SDS011;13899;51.174;4.456;2023-05-07T11:45:44;4.37;;;2.87;;
25917;SDS011;13899;51.174;4.456;2023-05-07T11:48:11;11.38;;;10.60;;
25917;SDS011;13899;51.174;4.456;2023-05-07T11:50:49;6.82;;;6.20;;
25917;SDS011;13899;51.174;4.456;2023-05-07T11:53:39;7.90;;;7.32;;
25917;SDS011;13899;51.174;4.456;2023-05-07T11:56:06;3.13;;;2.13;;
25917;SDS011;13899;51.174;4.456;2023-05-07T11:58:32;4.82;;;2.60;;
25917;SDS011;13899;51.174;4.456;2023-05-07T12:01:00;12.52;;;11.73;;
25917;SDS011;13899;51.174;4.456;2023-05-07T12:03:25;7.37;;;6.53;;
25917;SDS011;13899;51.174;4.456;2023-05-07T12:05:51;6.80;;;6.33;;
25917;SDS011;13899;51.174;4.456;2023-05-07T12:08:18;6.70;;;6.03;;
25917;SDS011;13899;51.174;4.456;2023-05-07T12:10:44;6.70;;;6.18;;
25917;SDS011;13899;51.174;4.456;2023-05-07T12:13:20;6.03;;;5.45;;
25917;SDS011;13899;51.174;4.456;2023-05-07T12:15:56;7.28;;;6.60;;
25917;SDS011;13899;51.174;4.456;2023-05-07T12:18:22;7.38;;;6.82;;
25917;SDS011;13899;51.174;4.456;2023-05-07T12:20:50;7.57;;;7.03;;
25917;SDS011;13899;51.174;4.456;2023-05-07T12:23:16;8.10;;;7.32;;
25917;SDS011;13899;51.174;4.456;2023-05-07T12:25:42;7.53;;;6.93;;
25917;SDS011;13899;51.174;4.456;2023-05-07T12:28:13;6.50;;;6.00;;
25917;SDS011;13899;51.174;4.456;2023-05-07T12:30:46;7.22;;;6.63;;
25917;SDS011;13899;51.174;4.456;2023-05-07T12:33:16;8.00;;;7.30;;
25917;SDS011;13899;51.174;4.456;2023-05-07T12:35:43;8.38;;;7.50;;
25917;SDS011;13899;51.174;4.456;2023-05-07T12:38:09;7.90;;;7.10;;
25917;SDS011;13899;51.174;4.456;2023-05-07T12:40:37;7.15;;;6.55;;
25917;SDS011;13899;51.174;4.456;2023-05-07T12:43:18;7.72;;;7.13;;
25917;SDS011;13899;51.174;4.456;2023-05-07T12:45:51;6.90;;;6.40;;
25917;SDS011;13899;51.174;4.456;2023-05-07T12:48:19;6.53;;;6.10;;
25917;SDS011;13899;51.174;4.456;2023-05-07T12:50:45;7.78;;;7.28;;
25917;SDS011;13899;51.174;4.456;2023-05-07T12:53:14;6.07;;;5.57;;
25917;SDS011;13899;51.174;4.456;2023-05-07T12:55:44;6.97;;;6.40;;
25917;SDS011;13899;51.174;4.456;2023-05-07T12:58:15;8.45;;;7.85;;
25917;SDS011;13899;51.174;4.456;2023-05-07T13:00:47;8.07;;;7.57;;
25917;SDS011;13899;51.174;4.456;2023-05-07T13:03:20;6.70;;;6.25;;
25917;SDS011;13899;51.174;4.456;2023-05-07T13:05:54;7.05;;;6.55;;
25917;SDS011;13899;51.174;4.456;2023-05-07T13:08:24;7.18;;;6.57;;
25917;SDS011;13899;51.174;4.456;2023-05-07T13:10:55;6.22;;;5.82;;
25917;SDS011;13899;51.174;4.456;2023-05-07T13:13:22;8.30;;;7.70;;
25917;SDS011;13899;51.174;4.456;2023-05-07T13:15:48;8.23;;;7.63;;
25917;SDS011;13899;51.174;4.456;2023-05-07T13:18:13;7.80;;;7.20;;
25917;SDS011;13899;51.174;4.456;2023-05-07T13:20:39;7.63;;;7.10;;
25917;SDS011;13899;51.174;4.456;2023-05-07T13:23:07;8.10;;;7.40;;
25917;SDS011;13899;51.174;4.456;2023-05-07T13:25:33;8.73;;;8.00;;
25917;SDS011;13899;51.174;4.456;2023-05-07T13:27:59;3.80;;;2.13;;
25917;SDS011;13899;51.174;4.456;2023-05-07T13:30:25;3.78;;;2.13;;
25917;SDS011;13899;51.174;4.456;2023-05-07T13:32:53;2.83;;;2.00;;
25917;SDS011;13899;51.174;4.456;2023-05-07T13:35:20;3.30;;;1.80;;
25917;SDS011;13899;51.174;4.456;2023-05-07T13:37:46;3.27;;;1.77;;
25917;SDS011;13899;51.174;4.456;2023-05-07T13:40:15;3.83;;;1.98;;
25917;SDS011;13899;51.174;4.456;2023-05-07T13:42:41;3.03;;;2.33;;
25917;SDS011;13899;51.174;4.456;2023-05-07T13:45:07;2.60;;;1.90;;
25917;SDS011;13899;51.174;4.456;2023-05-07T13:47:39;2.65;;;1.48;;
25917;SDS011;13899;51.174;4.456;2023-05-07T13:50:08;3.88;;;1.50;;
25917;SDS011;13899;51.174;4.456;2023-05-07T13:52:34;3.50;;;1.80;;
25917;SDS011;13899;51.174;4.456;2023-05-07T13:55:00;3.93;;;1.90;;
25917;SDS011;13899;51.174;4.456;2023-05-07T13:57:26;3.03;;;1.20;;
25917;SDS011;13899;51.174;4.456;2023-05-07T13:59:51;2.67;;;1.20;;
25917;SDS011;13899;51.174;4.456;2023-05-07T14:02:19;3.80;;;1.60;;
25917;SDS011;13899;51.174;4.456;2023-05-07T14:04:44;3.03;;;1.33;;
25917;SDS011;13899;51.174;4.456;2023-05-07T14:07:10;1.93;;;1.60;;
25917;SDS011;13899;51.174;4.456;2023-05-07T14:09:36;3.20;;;1.50;;
25917;SDS011;13899;51.174;4.456;2023-05-07T14:12:01;2.63;;;1.70;;
25917;SDS011;13899;51.174;4.456;2023-05-07T14:14:27;3.00;;;1.60;;
25917;SDS011;13899;51.174;4.456;2023-05-07T14:16:53;3.87;;;1.57;;
25917;SDS011;13899;51.174;4.456;2023-05-07T14:19:18;3.17;;;1.57;;
25917;SDS011;13899;51.174;4.456;2023-05-07T14:21:44;1.90;;;1.43;;
25917;SDS011;13899;51.174;4.456;2023-05-07T14:24:13;3.88;;;1.80;;
25917;SDS011;13899;51.174;4.456;2023-05-07T14:26:38;3.17;;;1.50;;
25917;SDS011;13899;51.174;4.456;2023-05-07T14:29:05;1.80;;;1.40;;
25917;SDS011;13899;51.174;4.456;2023-05-07T14:31:31;2.37;;;1.50;;
25917;SDS011;13899;51.174;4.456;2023-05-07T14:36:24;2.58;;;1.42;;
25917;SDS011;13899;51.174;4.456;2023-05-07T14:38:51;3.47;;;1.42;;
25917;SDS011;13899;51.174;4.456;2023-05-07T14:41:21;1.70;;;1.33;;
25917;SDS011;13899;51.174;4.456;2023-05-07T14:46:18;2.38;;;1.30;;
25917;SDS011;13899;51.174;4.456;2023-05-07T14:48:44;3.05;;;1.50;;
25917;SDS011;13899;51.174;4.456;2023-05-07T14:51:11;2.63;;;1.40;;
25917;SDS011;13899;51.174;4.456;2023-05-07T14:56:04;2.95;;;1.55;;
25917;SDS011;13899;51.174;4.456;2023-05-07T14:58:31;2.85;;;1.70;;
25917;SDS011;13899;51.174;4.456;2023-05-07T15:00:57;2.42;;;1.35;;
25917;SDS011;13899;51.174;4.456;2023-05-07T15:03:23;2.08;;;1.75;;
25917;SDS011;13899;51.174;4.456;2023-05-07T15:05:50;2.73;;;1.50;;
25917;SDS011;13899;51.174;4.456;2023-05-07T15:08:16;3.87;;;1.60;;
25917;SDS011;13899;51.174;4.456;2023-05-07T15:10:42;2.50;;;1.63;;